Time;durP1;ratioP1;P1;durP2;ratioP2;P2;SDS_P1;SDS_P2;PMS_P1;PMS_P2;Temp;Humidity;BMP_temperature;BMP_pressure;BME280_temperature;BME280_humidity;BME280_pressure;Samples;Min_cycle;Max_cycle;Signal;HPM_P1;HPM_P2
2022/11/17 00:01:42;;;;;;;75.65;67.47;;;;;;;7.79;100.00;99854.44;5104227;28;20055;-80
2022/11/17 00:04:09;;;;;;;86.07;59.08;;;;;;;7.97;100.00;99848.50;5104304;28;20056;-80
2022/11/17 00:06:37;;;;;;;82.97;65.55;;;;;;;8.06;100.00;99851.72;5101789;28;20085;-80
2022/11/17 00:09:03;;;;;;;71.72;63.17;;;;;;;7.96;100.00;99851.34;5102816;28;20461;-80
2022/11/17 00:14:31;;;;;;;72.20;62.22;;;;;;;8.26;100.00;99843.69;5103514;28;20044;-80
2022/11/17 00:14:31;;;;;;;66.82;59.75;;;;;;;8.19;100.00;99833.13;5119726;28;20043;-78
2022/11/17 00:16:58;;;;;;;65.78;58.78;;;;;;;8.09;100.00;99837.25;5102492;28;20060;-80
2022/11/17 00:22:13;;;;;;;64.38;57.70;;;;;;;8.11;100.00;99821.97;5085165;28;20055;-79
2022/11/17 00:24:40;;;;;;;63.15;56.85;;;;;;;7.94;100.00;99821.66;5110532;28;20077;-79
2022/11/17 00:27:07;;;;;;;63.22;56.85;;;;;;;7.85;100.00;99823.72;5091298;28;20114;-79
2022/11/17 00:29:35;;;;;;;62.95;56.92;;;;;;;7.83;100.00;99812.53;5092121;28;20044;-79
2022/11/17 00:34:47;;;;;;;67.75;61.03;;;;;;;7.73;100.00;99810.34;5102518;28;20055;-78
2022/11/17 00:37:16;;;;;;;68.25;61.55;;;;;;;7.68;100.00;99819.91;5092671;28;20040;-80
2022/11/17 00:39:43;;;;;;;74.55;67.47;;;;;;;7.56;100.00;99820.59;5098427;28;20058;-79
2022/11/17 00:42:10;;;;;;;67.85;61.03;;;;;;;7.58;100.00;99812.44;5084952;28;20121;-80
2022/11/17 00:44:37;;;;;;;70.38;63.47;;;;;;;7.57;100.00;99806.34;5090052;28;20048;-80
2022/11/17 00:47:06;;;;;;;59.45;49.78;;;;;;;7.62;100.00;99810.19;5089337;28;20045;-79
2022/11/17 00:49:33;;;;;;;58.58;49.20;;;;;;;7.71;100.00;99814.22;5093715;28;20048;-79
2022/11/17 00:52:00;;;;;;;56.67;48.83;;;;;;;7.72;100.00;99815.88;5095119;28;20047;-80
2022/11/17 00:54:28;;;;;;;63.72;57.15;;;;;;;7.84;100.00;99802.78;5089642;28;20078;-80
2022/11/17 00:56:56;;;;;;;64.57;57.83;;;;;;;8.12;100.00;99802.47;5089867;28;20073;-80
2022/11/17 00:59:23;;;;;;;63.40;56.75;;;;;;;8.23;100.00;99801.78;5080337;28;20059;-80
2022/11/17 01:01:50;;;;;;;70.10;62.95;;;;;;;8.38;100.00;99788.25;5195886;22;20067;-82
2022/11/17 01:04:16;;;;;;;68.28;61.83;;;;;;;8.39;100.00;99788.06;5063158;28;20052;-82
2022/11/17 01:06:46;;;;;;;66.47;59.72;;;;;;;8.29;100.00;99786.88;5071471;28;20052;-82
2022/11/17 01:09:15;;;;;;;64.53;58.20;;;;;;;8.17;100.00;99790.22;5071643;28;20049;-81
2022/11/17 01:11:43;;;;;;;61.38;55.20;;;;;;;8.24;100.00;99776.94;5071187;28;20465;-82
2022/11/17 01:14:13;;;;;;;61.67;55.50;;;;;;;8.24;100.00;99772.47;5076806;28;20046;-81
2022/11/17 01:16:40;;;;;;;68.00;61.60;;;;;;;8.29;100.00;99776.28;5074825;28;20128;-81
2022/11/17 01:19:07;;;;;;;66.18;59.53;;;;;;;8.13;100.00;99773.13;5074774;28;20484;-82
2022/11/17 01:21:34;;;;;;;59.88;53.83;;;;;;;8.11;100.00;99775.19;5069731;28;20106;-81
2022/11/17 01:24:01;;;;;;;62.42;55.70;;;;;;;8.26;100.00;99764.34;5067519;28;20052;-81
2022/11/17 01:26:30;;;;;;;61.35;55.17;;;;;;;8.31;100.00;99758.38;5069797;28;20140;-82
2022/11/17 01:28:59;;;;;;;63.03;56.42;;;;;;;8.30;100.00;99757.56;5079760;28;20472;-82
2022/11/17 01:31:29;;;;;;;63.42;57.47;;;;;;;8.33;100.00;99761.63;5076623;28;20056;-82
2022/11/17 01:33:56;;;;;;;64.63;58.45;;;;;;;8.37;100.00;99747.75;5065108;28;20543;-83
2022/11/17 01:36:27;;;;;;;65.15;58.92;;;;;;;8.35;100.00;99749.81;5070036;28;20052;-82
2022/11/17 01:38:55;;;;;;;65.32;58.85;;;;;;;8.41;100.00;99750.78;5069281;28;20040;-82
2022/11/17 01:41:24;;;;;;;64.43;58.13;;;;;;;8.51;100.00;99750.34;5071701;28;20044;-81
2022/11/17 01:43:53;;;;;;;64.95;58.58;;;;;;;8.62;100.00;99744.31;5077026;28;20469;-81
2022/11/17 01:46:32;;;;;;;55.78;49.85;;;;;;;8.70;100.00;99736.94;5076151;28;20468;-81
2022/11/17 01:49:05;;;;;;;54.97;49.67;;;;;;;9.06;100.00;99745.16;5067511;28;20523;-81
2022/11/17 01:51:35;;;;;;;55.22;49.78;;;;;;;9.00;100.00;99738.88;5067710;28;20397;-82
2022/11/17 01:54:02;;;;;;;59.17;53.42;;;;;;;9.09;100.00;99731.47;5064890;28;20480;-81
2022/11/17 01:56:34;;;;;;;57.58;51.97;;;;;;;9.19;100.00;99731.75;5080054;28;20575;-81
2022/11/17 01:59:09;;;;;;;58.50;52.90;;;;;;;9.16;100.00;99721.59;5089573;28;20454;-83
2022/11/17 02:01:54;;;;;;;62.25;56.00;;;;;;;8.98;100.00;99724.25;5085348;28;20114;-82
2022/11/17 02:04:22;;;;;;;59.95;54.35;;;;;;;8.89;100.00;99719.22;5088632;28;20082;-81
2022/11/17 02:06:52;;;;;;;59.40;53.80;;;;;;;9.02;100.00;99720.16;5086109;28;20499;-83
2022/11/17 02:09:21;;;;;;;60.83;54.83;;;;;;;8.90;100.00;99714.75;5081867;28;20083;-82
2022/11/17 02:11:49;;;;;;;63.00;55.72;;;;;;;8.92;100.00;99721.44;5073740;28;20041;-81
2022/11/17 02:14:16;;;;;;;91.68;65.22;;;;;;;8.78;100.00;99711.22;5061664;28;20109;-83
2022/11/17 02:16:44;;;;;;;67.95;57.03;;;;;;;8.75;100.00;99716.94;5076369;28;20048;-81
2022/11/17 02:19:14;;;;;;;68.50;58.13;;;;;;;8.65;100.00;99720.91;5072680;28;20048;-81
2022/11/17 02:22:04;;;;;;;88.90;79.63;;;;;;;8.83;100.00;99708.69;5084306;28;20045;-82
2022/11/17 02:24:55;;;;;;;73.82;66.20;;;;;;;8.77;100.00;99713.03;5079349;28;20045;-80
2022/11/17 02:27:55;;;;;;;58.60;51.80;;;;;;;8.62;100.00;99707.28;5088566;28;20054;-80
2022/11/17 02:30:23;;;;;;;56.58;50.58;;;;;;;8.65;100.00;99706.84;5095397;28;20036;-81
2022/11/17 02:33:00;;;;;;;57.42;51.42;;;;;;;8.69;100.00;99694.78;5079729;28;20394;-81
2022/11/17 02:35:35;;;;;;;57.17;51.25;;;;;;;8.68;100.00;99695.81;5090183;28;20467;-82
2022/11/17 02:38:13;;;;;;;54.97;49.15;;;;;;;8.54;100.00;99699.63;5093908;28;20048;-84
2022/11/17 02:40:45;;;;;;;56.42;50.67;;;;;;;8.53;100.00;99693.50;5096340;28;20048;-81
2022/11/17 02:46:07;;;;;;;56.72;50.88;;;;;;;8.51;100.00;99681.53;5071603;28;20051;-81
2022/11/17 02:48:38;;;;;;;57.67;51.47;;;;;;;8.58;100.00;99687.56;5082521;28;20125;-80
2022/11/17 02:51:12;;;;;;;58.20;51.67;;;;;;;8.54;100.00;99673.97;5085390;28;20028;-80
2022/11/17 02:53:40;;;;;;;57.05;50.97;;;;;;;8.63;100.00;99677.16;5088513;28;20053;-82
2022/11/17 02:56:08;;;;;;;58.08;51.85;;;;;;;8.78;100.00;99682.09;5076221;28;20048;-83
2022/11/17 02:58:36;;;;;;;57.45;51.40;;;;;;;8.66;100.00;99674.06;5090542;28;20044;-82
2022/11/17 03:01:25;;;;;;;58.08;51.97;;;;;;;8.75;100.00;99682.53;5082237;28;20446;-82
2022/11/17 03:04:08;;;;;;;56.00;49.88;;;;;;;8.76;100.00;99662.97;5087585;28;20067;-83
2022/11/17 03:06:44;;;;;;;55.08;49.50;;;;;;;8.77;100.00;99672.50;5086558;28;20045;-81
2022/11/17 03:09:18;;;;;;;55.58;49.53;;;;;;;8.74;100.00;99665.81;5074965;28;20453;-82
2022/11/17 03:11:53;;;;;;;54.45;48.78;;;;;;;8.79;100.00;99667.81;5089228;28;20036;-82
2022/11/17 03:14:29;;;;;;;54.10;48.60;;;;;;;8.75;100.00;99662.16;5095880;28;20049;-80
2022/11/17 03:17:01;;;;;;;53.47;47.80;;;;;;;8.73;100.00;99663.41;5078985;28;20036;-82
2022/11/17 03:19:35;;;;;;;54.58;49.10;;;;;;;8.70;100.00;99652.22;5090567;28;20044;-81
2022/11/17 03:22:07;;;;;;;54.42;48.00;;;;;;;8.67;100.00;99650.00;5082027;28;20048;-82
2022/11/17 03:24:39;;;;;;;55.05;49.35;;;;;;;8.66;100.00;99652.88;5077561;28;20478;-82
2022/11/17 03:27:11;;;;;;;52.63;47.15;;;;;;;8.70;100.00;99646.09;5070963;28;20057;-81
2022/11/17 03:29:44;;;;;;;52.20;46.63;;;;;;;8.72;100.00;99646.72;5069638;28;20045;-82
2022/11/17 03:32:12;;;;;;;54.55;49.00;;;;;;;8.71;100.00;99637.13;5075865;28;20029;-81
2022/11/17 03:34:44;;;;;;;54.05;48.35;;;;;;;8.73;100.00;99634.28;5091570;28;20049;-81
2022/11/17 03:37:15;;;;;;;69.43;62.28;;;;;;;8.80;100.00;99635.81;5085849;28;20049;-81
2022/11/17 03:39:47;;;;;;;73.47;66.77;;;;;;;8.79;100.00;99623.59;5071217;28;20056;-81
2022/11/17 03:42:18;;;;;;;78.47;71.30;;;;;;;8.99;100.00;99619.94;5059040;28;20044;-81
2022/11/17 03:44:51;;;;;;;68.10;61.70;;;;;;;8.94;100.00;99610.81;5070607;28;20059;-81
2022/11/17 03:47:20;;;;;;;70.95;64.07;;;;;;;8.89;100.00;99615.94;5070471;28;20052;-82
2022/11/17 03:49:54;;;;;;;69.03;62.72;;;;;;;9.01;100.00;99618.66;5058365;28;20086;-82
2022/11/17 03:52:23;;;;;;;72.32;65.43;;;;;;;8.99;100.00;99604.84;5069705;28;20052;-81
2022/11/17 03:54:51;;;;;;;71.22;64.60;;;;;;;9.10;100.00;99611.22;5065864;28;20393;-81
2022/11/17 03:57:25;;;;;;;68.22;61.95;;;;;;;9.11;100.00;99611.03;5064072;28;20057;-81
2022/11/17 03:59:57;;;;;;;70.85;64.35;;;;;;;9.13;100.00;99602.84;5070185;28;20045;-82
2022/11/17 04:02:26;;;;;;;69.32;62.90;;;;;;;9.13;100.00;99603.63;5065056;28;20056;-81
2022/11/17 04:05:07;;;;;;;66.18;60.38;;;;;;;9.07;100.00;99601.09;5068477;28;20446;-82
2022/11/17 04:07:36;;;;;;;63.17;57.47;;;;;;;8.91;100.00;99602.50;5073130;28;20056;-82
2022/11/17 04:10:04;;;;;;;59.50;53.50;;;;;;;8.80;100.00;99600.59;5071679;28;20117;-82
2022/11/17 04:17:57;;;;;;;62.92;57.50;;;;;;;8.76;100.00;99587.00;5077853;28;20394;-82
2022/11/17 04:20:24;;;;;;;58.83;53.55;;;;;;;8.58;100.00;99590.44;5091091;28;20457;-82
2022/11/17 04:30:57;;;;;;;60.95;54.97;;;;;;;8.07;100.00;99582.75;5088808;28;20080;-82
2022/11/17 04:33:24;;;;;;;70.80;51.45;;;;;;;7.75;100.00;99588.91;5077096;28;20049;-81
2022/11/17 04:35:51;;;;;;;56.03;50.83;;;;;;;7.79;100.00;99587.47;5071900;28;20048;-81
2022/11/17 04:38:17;;;;;;;58.70;53.35;;;;;;;7.52;100.00;99583.38;5086053;28;20053;-82
2022/11/17 04:43:28;;;;;;;56.30;50.85;;;;;;;7.75;100.00;99586.28;5089180;28;20422;-82
2022/11/17 04:46:00;;;;;;;56.10;50.80;;;;;;;7.94;100.00;99581.06;5096662;28;20082;-81
2022/11/17 04:48:26;;;;;;;66.93;60.45;;;;;;;8.07;100.00;99580.13;5097449;28;20048;-82
2022/11/17 04:50:54;;;;;;;58.10;52.70;;;;;;;8.20;100.00;99588.75;5085238;28;20044;-81
2022/11/17 04:53:20;;;;;;;72.65;64.20;;;;;;;8.76;100.00;99587.00;5073762;28;20416;-82
2022/11/17 04:55:47;;;;;;;52.35;46.38;;;;;;;8.62;100.00;99585.50;5069688;28;20443;-81
2022/11/17 04:58:14;;;;;;;52.25;46.90;;;;;;;8.79;100.00;99575.94;5095542;28;20102;-82
2022/11/17 05:00:41;;;;;;;48.30;43.67;;;;;;;8.66;100.00;99560.22;5082934;28;20045;-81
2022/11/17 05:03:09;;;;;;;60.83;51.95;;;;;;;8.67;100.00;99565.28;5090300;28;20053;-81
2022/11/17 05:05:37;;;;;;;69.93;52.60;;;;;;;8.71;100.00;99563.00;5078199;28;20063;-83
2022/11/17 05:08:10;;;;;;;53.50;47.63;;;;;;;9.07;100.00;99562.16;5088903;28;20071;-82
2022/11/17 05:13:24;;;;;;;51.80;46.70;;;;;;;9.34;100.00;99549.34;5032472;28;20080;-82
2022/11/17 05:18:47;;;;;;;48.95;44.45;;;;;;;9.43;100.00;99547.19;5023578;28;20153;-82
2022/11/17 05:21:14;;;;;;;51.05;46.65;;;;;;;9.58;100.00;99552.88;5077911;28;20052;-82
2022/11/17 05:23:54;;;;;;;48.13;43.90;;;;;;;9.71;100.00;99556.34;5085462;28;20045;-82
2022/11/17 05:26:23;;;;;;;48.40;44.25;;;;;;;9.75;100.00;99552.22;5081625;28;20083;-81
2022/11/17 05:28:50;;;;;;;46.67;42.47;;;;;;;9.72;100.00;99542.06;5087233;28;20052;-82
2022/11/17 05:31:18;;;;;;;48.45;44.38;;;;;;;9.78;100.00;99541.16;5080205;28;20044;-82
2022/11/17 05:33:45;;;;;;;52.58;48.15;;;;;;;9.80;100.00;99539.06;5085131;28;20562;-82
2022/11/17 05:36:14;;;;;;;49.20;44.80;;;;;;;9.73;100.00;99535.72;5084964;28;20404;-82
2022/11/17 05:38:41;;;;;;;61.50;55.13;;;;;;;9.88;100.00;99536.09;5081038;28;20056;-83
2022/11/17 05:41:08;;;;;;;84.97;76.22;;;;;;;9.98;100.00;99540.81;5087256;28;20055;-82
2022/11/17 05:43:35;;;;;;;55.53;50.42;;;;;;;10.06;100.00;99533.31;5083781;28;20509;-82
2022/11/17 05:46:02;;;;;;;57.47;51.47;;;;;;;10.12;100.00;99544.06;5079313;28;20071;-82
2022/11/17 05:48:29;;;;;;;51.55;46.88;;;;;;;10.11;100.00;99547.75;5090356;28;20079;-82
2022/11/17 05:50:56;;;;;;;53.70;48.95;;;;;;;10.18;100.00;99538.63;5085452;28;20052;-82
2022/11/17 05:53:25;;;;;;;49.72;45.45;;;;;;;10.31;100.00;99542.91;5079216;28;20052;-83
2022/11/17 05:56:03;;;;;;;51.20;46.80;;;;;;;10.29;100.00;99534.41;5087109;28;20055;-82
2022/11/17 05:58:32;;;;;;;48.80;44.72;;;;;;;10.29;100.00;99531.75;5094596;28;20063;-81
2022/11/17 06:00:59;;;;;;;47.63;43.75;;;;;;;10.34;100.00;99531.81;5089433;28;20029;-81
2022/11/17 06:03:32;;;;;;;51.47;47.08;;;;;;;10.40;100.00;99530.91;5086771;28;20049;-81
2022/11/17 06:05:59;;;;;;;60.95;54.20;;;;;;;10.34;100.00;99531.81;5078280;28;20049;-81
2022/11/17 06:08:28;;;;;;;64.82;57.97;;;;;;;10.47;100.00;99536.91;5087602;28;20075;-82
2022/11/17 06:10:55;;;;;;;62.92;55.28;;;;;;;10.46;100.00;99532.63;5087966;28;20041;-82
2022/11/17 06:13:24;;;;;;;55.75;50.05;;;;;;;10.58;100.00;99537.91;5064404;28;20044;-83
2022/11/17 06:15:51;;;;;;;49.50;45.42;;;;;;;10.66;100.00;99528.78;5063001;28;20130;-82
2022/11/17 06:18:20;;;;;;;51.67;47.38;;;;;;;10.69;100.00;99539.72;5081347;28;20189;-82
2022/11/17 06:20:51;;;;;;;71.22;63.20;;;;;;;10.77;100.00;99534.06;5077423;28;20048;-82
2022/11/17 06:23:20;;;;;;;57.72;52.45;;;;;;;10.75;100.00;99532.69;5084810;28;20079;-81
2022/11/17 06:25:48;;;;;;;55.70;50.95;;;;;;;10.78;100.00;99527.69;5082653;28;20044;-81
2022/11/17 06:28:19;;;;;;;55.55;50.45;;;;;;;10.86;100.00;99526.53;5078797;28;20049;-82
2022/11/17 06:30:46;;;;;;;52.65;48.13;;;;;;;10.89;100.00;99526.06;5088713;28;20110;-82
2022/11/17 06:33:15;;;;;;;53.13;48.83;;;;;;;10.96;100.00;99520.59;5083291;28;20044;-82
2022/11/17 06:35:44;;;;;;;51.22;47.22;;;;;;;10.89;100.00;99533.19;5087132;28;20029;-82
2022/11/17 06:38:11;;;;;;;46.90;43.10;;;;;;;10.85;100.00;99527.56;5090242;28;20451;-81
2022/11/17 06:40:38;;;;;;;49.25;45.10;;;;;;;10.82;100.00;99524.56;5084467;28;20044;-81
2022/11/17 06:43:09;;;;;;;47.72;43.95;;;;;;;10.85;100.00;99529.41;5089609;28;20048;-82
2022/11/17 06:45:37;;;;;;;49.92;45.78;;;;;;;10.91;100.00;99526.59;5092303;28;20040;-82
2022/11/17 06:48:15;;;;;;;50.38;46.15;;;;;;;11.10;100.00;99524.56;5077927;28;20045;-82
2022/11/17 06:50:44;;;;;;;56.65;51.60;;;;;;;11.03;100.00;99518.59;5085282;28;20044;-82
2022/11/17 06:53:12;;;;;;;55.10;49.95;;;;;;;11.00;100.00;99524.38;5090559;28;20037;-81
2022/11/17 06:55:40;;;;;;;52.85;48.13;;;;;;;11.07;100.00;99510.94;5065818;28;20049;-81
2022/11/17 06:58:10;;;;;;;57.13;51.47;;;;;;;11.13;100.00;99517.97;5064683;28;20044;-81
2022/11/17 07:00:37;;;;;;;56.88;51.78;;;;;;;11.04;100.00;99524.72;5068090;28;20135;-81
2022/11/17 07:03:06;;;;;;;53.85;48.40;;;;;;;11.07;100.00;99518.91;5064749;28;20048;-81
2022/11/17 07:05:34;;;;;;;53.33;48.90;;;;;;;11.21;100.00;99521.06;5071066;28;20110;-83
2022/11/17 07:08:02;;;;;;;54.30;49.40;;;;;;;11.19;100.00;99512.50;5062401;28;20118;-82
2022/11/17 07:10:29;;;;;;;53.85;49.33;;;;;;;11.33;100.00;99515.69;5075557;28;20044;-82
2022/11/17 07:12:58;;;;;;;54.15;49.55;;;;;;;11.37;100.00;99514.13;5093167;28;20049;-81
2022/11/17 07:15:27;;;;;;;55.17;50.55;;;;;;;11.29;100.00;99511.91;5092903;28;20041;-81
2022/11/17 07:17:54;;;;;;;56.22;51.92;;;;;;;11.49;100.00;99499.97;5092131;28;20045;-81
2022/11/17 07:20:21;;;;;;;55.45;50.42;;;;;;;11.55;100.00;99507.78;5090925;28;20441;-81
2022/11/17 07:22:48;;;;;;;62.67;57.28;;;;;;;11.62;100.00;99512.97;5091605;28;20068;-82
2022/11/17 07:25:15;;;;;;;55.97;51.33;;;;;;;11.67;100.00;99508.50;5078780;28;20041;-82
2022/11/17 07:27:42;;;;;;;51.60;47.28;;;;;;;11.62;100.00;99516.44;5072198;28;20135;-82
2022/11/17 07:30:10;;;;;;;56.30;51.13;;;;;;;11.62;100.00;99512.97;5079553;28;20044;-82
2022/11/17 07:32:38;;;;;;;51.35;47.13;;;;;;;11.70;100.00;99515.22;5070238;28;20041;-82
2022/11/17 07:35:06;;;;;;;54.25;49.72;;;;;;;11.64;100.00;99516.19;5073287;28;20435;-81
2022/11/17 07:37:34;;;;;;;54.38;49.95;;;;;;;11.74;100.00;99510.19;5069626;28;20041;-81
2022/11/17 07:40:02;;;;;;;56.17;51.25;;;;;;;11.75;100.00;99507.31;5075971;28;20040;-82
2022/11/17 07:42:28;;;;;;;52.42;48.13;;;;;;;11.76;100.00;99519.56;5075613;28;20117;-81
2022/11/17 07:44:55;;;;;;;56.70;50.83;;;;;;;11.70;100.00;99516.00;5086606;28;20049;-82
2022/11/17 07:47:23;;;;;;;53.45;48.53;;;;;;;11.87;100.00;99524.03;5075054;28;20117;-82
2022/11/17 07:49:51;;;;;;;51.58;47.45;;;;;;;11.77;100.00;99523.84;5079705;28;20378;-83
2022/11/17 07:52:18;;;;;;;54.75;50.35;;;;;;;11.87;100.00;99524.03;5066715;28;20048;-81
2022/11/17 07:54:44;;;;;;;53.33;48.65;;;;;;;11.90;100.00;99522.72;5080563;28;20048;-83
2022/11/17 07:57:11;;;;;;;55.60;50.90;;;;;;;11.84;100.00;99529.00;5070793;28;20115;-83
2022/11/17 07:59:38;;;;;;;59.00;54.08;;;;;;;11.78;100.00;99536.09;5090750;28;20878;-83
2022/11/17 08:02:05;;;;;;;56.20;51.90;;;;;;;11.82;100.00;99526.56;5082547;28;20052;-81
2022/11/17 08:04:31;;;;;;;58.03;53.40;;;;;;;11.84;100.00;99539.63;5077253;28;20078;-81
2022/11/17 08:07:00;;;;;;;58.10;52.90;;;;;;;11.76;100.00;99546.16;5090693;28;20048;-82
2022/11/17 08:09:26;;;;;;;54.33;50.05;;;;;;;11.76;100.00;99546.16;5083919;28;20075;-83
2022/11/17 08:11:53;;;;;;;56.50;51.88;;;;;;;11.80;100.00;99547.31;5084290;28;20087;-82
2022/11/17 08:14:20;;;;;;;61.33;56.08;;;;;;;11.90;100.00;99560.00;5106937;28;20056;-80
2022/11/17 08:16:47;;;;;;;57.67;52.47;;;;;;;11.83;100.00;99557.47;5089895;28;20044;-81
2022/11/17 08:19:14;;;;;;;63.92;57.83;;;;;;;11.80;100.00;99565.09;5080823;28;20049;-81
2022/11/17 08:21:41;;;;;;;61.47;55.50;;;;;;;11.67;100.00;99572.34;5101322;28;20040;-81
2022/11/17 08:24:11;;;;;;;64.18;57.88;;;;;;;11.74;100.00;99576.69;5087549;28;20441;-81
2022/11/17 08:26:39;;;;;;;55.53;50.83;;;;;;;11.99;100.00;99581.69;5092124;28;20063;-82
2022/11/17 08:29:06;;;;;;;51.83;47.53;;;;;;;12.01;100.00;99572.41;5092360;28;20048;-81
2022/11/17 08:31:34;;;;;;;46.13;42.50;;;;;;;12.14;100.00;99579.25;5085910;28;20068;-81
2022/11/17 08:34:01;;;;;;;47.80;44.05;;;;;;;12.42;100.00;99580.97;5097888;28;20044;-81
2022/11/17 08:36:29;;;;;;;50.45;46.63;;;;;;;12.54;100.00;99588.84;5084025;28;20074;-81
2022/11/17 08:38:56;;;;;;;46.08;42.17;;;;;;;12.64;100.00;99590.84;5075505;28;20059;-82
2022/11/17 08:41:25;;;;;;;46.88;43.30;;;;;;;12.66;100.00;99596.75;5094089;28;20036;-82
2022/11/17 08:43:52;;;;;;;46.05;42.25;;;;;;;12.59;100.00;99603.06;5094732;28;20052;-82
2022/11/17 08:46:19;;;;;;;44.88;41.45;;;;;;;12.61;100.00;99597.47;5104278;28;20052;-82
2022/11/17 08:48:52;;;;;;;46.60;43.00;;;;;;;12.63;100.00;99600.69;5087190;28;20040;-81
2022/11/17 08:51:26;;;;;;;43.25;39.92;;;;;;;12.58;100.00;99605.94;5080333;28;20417;-81
2022/11/17 08:53:54;;;;;;;46.03;42.38;;;;;;;12.44;100.00;99604.72;5087560;28;20065;-80
2022/11/17 08:56:24;;;;;;;43.95;40.65;;;;;;;12.48;100.00;99605.81;5084234;28;20143;-81
2022/11/17 08:58:52;;;;;;;43.00;39.95;;;;;;;12.31;100.00;99601.31;5077168;28;20052;-81
2022/11/17 09:01:18;;;;;;;44.92;41.22;;;;;;;12.36;100.00;99598.72;5086549;28;20074;-81
2022/11/17 09:03:47;;;;;;;42.25;38.95;;;;;;;12.40;100.00;99599.03;5089944;28;20048;-81
2022/11/17 09:06:16;;;;;;;42.67;39.67;;;;;;;12.38;100.00;99591.31;5087747;28;20074;-81
2022/11/17 09:08:43;;;;;;;43.42;40.13;;;;;;;12.40;100.00;99595.56;5101551;28;20070;-80
2022/11/17 09:11:13;;;;;;;42.70;39.30;;;;;;;12.38;100.00;99596.63;5095165;28;20125;-81
2022/11/17 09:13:44;;;;;;;42.67;39.50;;;;;;;12.49;100.00;99594.91;5089907;28;20040;-81
2022/11/17 09:16:11;;;;;;;40.00;37.30;;;;;;;12.45;100.00;99593.00;5091885;28;20167;-80
2022/11/17 09:18:39;;;;;;;45.83;41.75;;;;;;;12.43;100.00;99585.25;5092323;28;20056;-82
2022/11/17 09:21:10;;;;;;;40.28;37.63;;;;;;;12.50;100.00;99585.09;5085145;28;20044;-81
2022/11/17 09:23:36;;;;;;;40.63;37.72;;;;;;;12.54;100.00;99579.00;5094702;28;20518;-81
2022/11/17 09:26:08;;;;;;;42.45;39.38;;;;;;;12.63;100.00;99589.25;5039174;28;20479;-81
2022/11/17 09:28:34;;;;;;;41.95;38.90;;;;;;;12.55;100.00;99583.28;5061820;28;20044;-82
2022/11/17 09:31:07;;;;;;;45.10;41.53;;;;;;;12.67;100.00;99575.16;5060913;28;20072;-82
2022/11/17 09:33:34;;;;;;;44.47;41.45;;;;;;;12.76;100.00;99578.22;5072331;28;20041;-82
2022/11/17 09:36:01;;;;;;;42.42;39.70;;;;;;;12.72;100.00;99577.91;5072135;28;20402;-82
2022/11/17 09:38:28;;;;;;;41.90;38.70;;;;;;;12.98;100.00;99581.69;5071250;28;20045;-82
2022/11/17 09:40:57;;;;;;;41.95;39.13;;;;;;;12.96;100.00;99575.78;5071431;28;20037;-81
2022/11/17 09:43:28;;;;;;;42.75;39.85;;;;;;;13.02;100.00;99571.34;5067058;28;20071;-82
2022/11/17 09:46:00;;;;;;;41.83;39.03;;;;;;;13.00;100.00;99578.75;5062765;28;20108;-82
2022/11/17 09:48:39;;;;;;;43.30;40.50;;;;;;;13.04;100.00;99570.03;5051681;28;20115;-81
2022/11/17 09:51:11;;;;;;;45.17;42.05;;;;;;;13.08;100.00;99570.34;5053155;28;20067;-81
2022/11/17 09:53:45;;;;;;;43.83;40.83;;;;;;;13.13;100.00;99556.25;5057917;28;20099;-82
2022/11/17 09:56:13;;;;;;;45.92;42.53;;;;;;;12.79;100.00;99553.72;5066222;28;20083;-82
2022/11/17 09:58:45;;;;;;;44.38;41.47;;;;;;;13.00;100.00;99550.25;5068385;28;20055;-81
2022/11/17 10:01:14;;;;;;;42.55;39.65;;;;;;;13.01;100.00;99554.53;5061964;28;20072;-81
2022/11/17 10:03:44;;;;;;;43.17;40.03;;;;;;;13.12;100.00;99559.97;5065983;28;20060;-81
2022/11/17 10:06:15;;;;;;;47.22;43.28;;;;;;;12.85;100.00;99550.06;5065380;28;20150;-82
2022/11/17 10:08:50;;;;;;;54.97;49.47;;;;;;;13.03;100.00;99559.59;5069671;28;20458;-82
2022/11/17 10:11:32;;;;;;;48.42;44.28;;;;;;;13.17;100.00;99560.84;5060782;28;20469;-82
2022/11/17 10:14:03;;;;;;;40.53;37.55;;;;;;;13.26;100.00;99564.69;5065522;28;20110;-81
2022/11/17 10:16:30;;;;;;;49.00;44.92;;;;;;;13.15;100.00;99562.94;5064788;28;20072;-82
2022/11/17 10:19:02;;;;;;;54.55;49.40;;;;;;;13.23;100.00;99546.50;5057950;28;20045;-83
2022/11/17 10:21:30;;;;;;;47.00;43.17;;;;;;;13.29;100.00;99555.38;5068278;28;20083;-81
2022/11/17 10:23:59;;;;;;;49.38;45.13;;;;;;;13.28;100.00;99545.75;5064854;28;20091;-82
2022/11/17 10:26:26;;;;;;;52.00;47.17;;;;;;;13.38;100.00;99551.22;5061904;28;20107;-81
2022/11/17 10:29:08;;;;;;;73.38;65.20;;;;;;;13.47;100.00;99549.69;5069598;28;20077;-81
2022/11/17 10:31:43;;;;;;;144.25;105.28;;;;;;;13.40;100.00;99550.94;5052242;28;20046;-81
2022/11/17 10:34:31;;;;;;;68.65;61.80;;;;;;;13.25;100.00;99548.94;5058111;28;20458;-80
2022/11/17 10:37:04;;;;;;;63.03;57.15;;;;;;;13.32;100.00;99557.56;5065924;28;20056;-81
2022/11/17 10:39:36;;;;;;;66.20;59.67;;;;;;;13.33;100.00;99553.00;5063397;28;20394;-81
2022/11/17 10:42:17;;;;;;;74.13;66.95;;;;;;;13.32;100.00;99562.09;5061092;28;20068;-80
2022/11/17 10:44:50;;;;;;;76.07;68.43;;;;;;;13.17;100.00;99568.84;5050245;28;20057;-81
2022/11/17 10:47:29;;;;;;;67.60;61.13;;;;;;;13.31;100.00;99569.25;5069493;28;20041;-81
2022/11/17 10:50:15;;;;;;;51.22;46.95;;;;;;;13.19;100.00;99574.72;5066976;28;20052;-81
2022/11/17 10:52:42;;;;;;;48.03;44.05;;;;;;;13.12;100.00;99571.44;5069955;28;20057;-82
2022/11/17 10:55:26;;;;;;;65.38;59.20;;;;;;;13.27;100.00;99576.16;5066663;28;20473;-81
2022/11/17 10:57:58;;;;;;;63.10;56.92;;;;;;;13.26;100.00;99562.03;5054708;28;20056;-82
2022/11/17 11:00:29;;;;;;;43.22;39.72;;;;;;;13.17;100.00;99566.16;5052629;28;20045;-82
2022/11/17 11:03:17;;;;;;;44.65;41.15;;;;;;;13.07;100.00;99572.19;5049950;28;20060;-83
2022/11/17 11:06:05;;;;;;;44.38;40.78;;;;;;;12.98;100.00;99571.03;5041695;28;20512;-83
2022/11/17 11:08:38;;;;;;;47.33;42.83;;;;;;;12.98;100.00;99578.19;5045163;28;20080;-82
2022/11/17 11:11:12;;;;;;;66.95;57.33;;;;;;;13.04;100.00;99585.19;5051978;28;20128;-82
2022/11/17 11:13:45;;;;;;;50.83;46.15;;;;;;;12.84;100.00;99586.56;5051233;28;20053;-81
2022/11/17 11:16:12;;;;;;;;;;;;;;;12.91;100.00;99588.25;5050027;28;20059;-81
2022/11/17 11:18:39;;;;;;;47.03;43.28;;;;;;;13.10;100.00;99583.41;5049586;28;20003;-81
2022/11/17 11:21:20;;;;;;;47.38;43.00;;;;;;;13.00;100.00;99587.56;5047676;28;20083;-81
2022/11/17 11:23:55;;;;;;;47.90;43.53;;;;;;;12.93;100.00;99588.81;5049289;28;20150;-82
2022/11/17 11:26:49;;;;;;;52.75;48.05;;;;;;;12.73;100.00;99584.03;5041586;28;20513;-82
2022/11/17 11:29:27;;;;;;;51.95;46.95;;;;;;;12.79;100.00;99596.38;5051737;28;20045;-81
2022/11/17 11:32:06;;;;;;;50.58;46.40;;;;;;;12.65;100.00;99584.44;5048781;28;20044;-81
2022/11/17 11:34:52;;;;;;;53.47;48.95;;;;;;;12.94;100.00;99593.88;5055462;28;20049;-82
2022/11/17 11:37:25;;;;;;;55.80;50.95;;;;;;;12.90;100.00;99602.63;5054947;28;20095;-82
2022/11/17 11:40:00;;;;;;;55.10;49.80;;;;;;;12.80;100.00;99590.00;5059320;28;20053;-81
2022/11/17 11:42:45;;;;;;;57.20;51.67;;;;;;;12.90;100.00;99592.78;5066687;28;20066;-82
2022/11/17 11:45:24;;;;;;;54.95;49.70;;;;;;;12.75;100.00;99584.59;5065847;28;20045;-80
2022/11/17 11:48:15;;;;;;;61.03;54.97;;;;;;;13.09;100.00;99587.94;5061570;28;20056;-81
2022/11/17 11:50:56;;;;;;;64.78;57.13;;;;;;;13.14;100.00;99585.31;5062540;28;20532;-81
2022/11/17 11:53:31;;;;;;;114.05;81.95;;;;;;;13.49;100.00;99594.75;5067023;28;20053;-81
2022/11/17 11:56:18;;;;;;;65.88;59.22;;;;;;;13.77;100.00;99587.53;5059837;28;20044;-80
2022/11/17 11:58:51;;;;;;;56.47;51.50;;;;;;;14.11;100.00;99588.09;5064090;28;20436;-81
2022/11/17 12:01:19;;;;;;;;;;;;;;;14.32;100.00;99581.03;5065686;28;20045;-80